createdAt,value
2023-04-26T00:00:53.458Z,63.00
2023-04-26T00:03:20.654Z,63.10
2023-04-26T00:05:47.638Z,63.20
2023-04-26T00:08:14.423Z,63.30
2023-04-26T00:10:41.204Z,63.30
2023-04-26T00:13:08.313Z,63.40
2023-04-26T00:15:34.974Z,63.50
2023-04-26T00:18:01.723Z,63.50
2023-04-26T00:20:28.341Z,63.60
2023-04-26T00:22:55.010Z,63.70
2023-04-26T00:25:21.589Z,63.70
2023-04-26T00:27:48.224Z,63.70
2023-04-26T00:30:15.184Z,63.70
2023-04-26T00:32:41.824Z,63.70
2023-04-26T00:35:09.066Z,63.70
2023-04-26T00:37:36.043Z,63.80
2023-04-26T00:40:02.729Z,63.80
2023-04-26T00:42:29.376Z,63.90
2023-04-26T00:44:57.611Z,64.00
2023-04-26T00:47:29.641Z,64.00
2023-04-26T00:49:56.687Z,64.20
2023-04-26T00:52:25.023Z,64.00
2023-04-26T00:54:53.289Z,64.10
2023-04-26T00:57:20.294Z,64.00
2023-04-26T00:59:46.928Z,64.00
2023-04-26T01:02:13.893Z,64.00
2023-04-26T01:04:41.877Z,64.10
2023-04-26T01:07:09.008Z,64.10
2023-04-26T01:09:35.653Z,64.30
2023-04-26T01:12:03.452Z,64.30
2023-04-26T01:14:31.541Z,64.30
2023-04-26T01:16:58.242Z,64.40
2023-04-26T01:19:25.613Z,64.40
2023-04-26T01:21:52.341Z,64.50
2023-04-26T01:24:18.941Z,64.60
2023-04-26T01:26:46.538Z,64.70
2023-04-26T01:29:14.963Z,64.70
2023-04-26T01:31:41.615Z,64.70
2023-04-26T01:34:08.405Z,64.70
2023-04-26T01:36:35.091Z,64.70
2023-04-26T01:39:01.793Z,64.70
2023-04-26T01:41:28.441Z,64.70
2023-04-26T01:43:55.645Z,64.80
2023-04-26T01:46:22.684Z,64.90
2023-04-26T01:48:49.370Z,65.00
2023-04-26T01:51:16.602Z,65.00
2023-04-26T01:53:43.247Z,65.00
2023-04-26T01:56:10.116Z,65.00
2023-04-26T01:58:36.740Z,64.90
2023-04-26T02:01:07.978Z,64.90
2023-04-26T02:03:35.737Z,65.00
2023-04-26T02:06:03.257Z,64.90
2023-04-26T02:08:30.096Z,64.90
2023-04-26T02:10:56.983Z,65.00
2023-04-26T02:13:23.679Z,65.00
2023-04-26T02:15:51.335Z,64.90
2023-04-26T02:18:21.741Z,64.90
2023-04-26T02:20:48.452Z,64.90
2023-04-26T02:23:15.683Z,64.90
2023-04-26T02:25:45.083Z,65.00
2023-04-26T02:28:11.690Z,65.00
2023-04-26T02:30:38.467Z,65.00
2023-04-26T02:33:05.231Z,65.00
2023-04-26T02:35:31.851Z,65.10
2023-04-26T02:37:58.657Z,65.10
2023-04-26T02:40:25.313Z,65.10
2023-04-26T02:42:52.060Z,65.10
2023-04-26T02:45:18.763Z,65.10
2023-04-26T02:47:45.420Z,65.10
2023-04-26T02:50:12.164Z,65.20
2023-04-26T02:52:38.881Z,65.20
2023-04-26T02:55:06.344Z,65.30
2023-04-26T02:57:33.508Z,65.40
2023-04-26T03:00:00.790Z,65.50
2023-04-26T03:02:27.901Z,65.40
2023-04-26T03:04:55.989Z,65.50
2023-04-26T03:07:22.835Z,65.50
2023-04-26T03:09:49.413Z,65.50
2023-04-26T03:12:16.574Z,65.50
2023-04-26T03:14:43.217Z,65.50
2023-04-26T03:17:09.837Z,65.50
2023-04-26T03:19:36.583Z,65.60
2023-04-26T03:22:03.404Z,65.60
2023-04-26T03:24:30.702Z,65.60
2023-04-26T03:26:57.963Z,65.70
2023-04-26T03:29:24.573Z,65.70
2023-04-26T03:31:51.337Z,65.90
2023-04-26T03:34:18.073Z,66.00
2023-04-26T03:36:44.698Z,66.00
2023-04-26T03:39:11.504Z,66.10
2023-04-26T03:41:39.537Z,66.10
2023-04-26T03:44:06.734Z,66.10
2023-04-26T03:46:33.414Z,66.20
2023-04-26T03:49:00.244Z,66.20
2023-04-26T03:51:28.231Z,66.30
2023-04-26T03:53:55.579Z,66.30
2023-04-26T03:56:22.233Z,66.20
2023-04-26T03:58:48.850Z,66.30
2023-04-26T04:01:15.751Z,66.30
2023-04-26T04:03:42.819Z,66.30
2023-04-26T04:06:09.640Z,66.30
2023-04-26T04:08:36.370Z,66.30
2023-04-26T04:11:02.975Z,66.30
2023-04-26T04:13:29.693Z,66.30
2023-04-26T04:15:56.366Z,66.40
2023-04-26T04:18:23.122Z,66.40
2023-04-26T04:20:49.779Z,66.30
2023-04-26T04:23:16.407Z,66.30
2023-04-26T04:25:43.989Z,66.20
2023-04-26T04:28:12.004Z,66.10
2023-04-26T04:30:38.633Z,66.10
2023-04-26T04:33:05.479Z,66.00
2023-04-26T04:35:34.136Z,66.00
2023-04-26T04:38:01.728Z,65.90
2023-04-26T04:40:28.723Z,65.90
2023-04-26T04:42:55.810Z,65.80
2023-04-26T04:45:22.521Z,65.70
2023-04-26T04:47:49.256Z,65.70
2023-04-26T04:50:15.967Z,65.70
2023-04-26T04:52:43.091Z,65.60
2023-04-26T04:55:09.998Z,65.50
2023-04-26T04:57:37.679Z,65.40
2023-04-26T05:00:12.517Z,65.40
2023-04-26T05:02:39.308Z,65.30
2023-04-26T05:05:06.657Z,65.10
2023-04-26T05:07:33.860Z,65.00
2023-04-26T05:10:00.909Z,65.00
2023-04-26T05:12:27.580Z,64.90
2023-04-26T05:14:54.273Z,64.80
2023-04-26T05:17:21.085Z,64.70
2023-04-26T05:19:48.277Z,64.70
2023-04-26T05:22:18.457Z,64.60
2023-04-26T05:24:46.920Z,64.50
2023-04-26T05:27:14.463Z,64.30
2023-04-26T05:29:41.640Z,64.10
2023-04-26T05:32:08.504Z,63.90
2023-04-26T05:34:35.499Z,63.70
2023-04-26T05:37:02.701Z,63.50
2023-04-26T05:39:29.353Z,63.30
2023-04-26T05:41:56.006Z,63.10
2023-04-26T05:44:22.765Z,63.00
2023-04-26T05:46:49.369Z,62.80
2023-04-26T05:49:16.128Z,62.80
2023-04-26T05:51:43.330Z,60.40
2023-04-26T05:54:09.992Z,54.20
2023-04-26T05:56:36.616Z,50.10
2023-04-26T05:59:03.231Z,47.90
2023-04-26T06:01:29.832Z,44.50
2023-04-26T06:03:59.895Z,42.10
2023-04-26T06:06:28.081Z,41.00
2023-04-26T06:08:54.708Z,41.20
2023-04-26T06:11:21.636Z,42.20
2023-04-26T06:13:48.300Z,42.80
2023-04-26T06:16:15.280Z,43.60
2023-04-26T06:18:42.399Z,44.20
2023-04-26T06:21:09.179Z,44.70
2023-04-26T06:23:35.849Z,45.10
2023-04-26T06:26:02.513Z,45.40
2023-04-26T06:28:29.225Z,45.30
2023-04-26T06:30:56.010Z,45.10
2023-04-26T06:33:22.641Z,45.00
2023-04-26T06:35:49.262Z,44.70
2023-04-26T06:38:15.958Z,44.50
2023-04-26T06:40:42.988Z,44.20
2023-04-26T06:43:09.618Z,43.90
2023-04-26T06:45:36.937Z,43.60
2023-04-26T06:48:04.959Z,43.70
2023-04-26T06:50:31.819Z,43.30
2023-04-26T06:52:58.461Z,43.10
2023-04-26T06:55:25.276Z,42.80
2023-04-26T06:57:51.996Z,42.60
2023-04-26T07:00:19.013Z,42.40
2023-04-26T07:02:46.055Z,42.40
2023-04-26T07:05:13.230Z,42.20
2023-04-26T07:07:39.902Z,41.80
2023-04-26T07:10:08.145Z,41.70
2023-04-26T07:12:35.113Z,41.60
2023-04-26T07:15:01.877Z,41.30
2023-04-26T07:17:28.544Z,41.20
2023-04-26T07:19:56.161Z,40.70
2023-04-26T07:22:22.976Z,40.70
2023-04-26T07:24:49.608Z,40.40
2023-04-26T07:27:16.347Z,40.00
2023-04-26T07:29:42.932Z,40.00
2023-04-26T07:32:09.971Z,39.70
2023-04-26T07:34:36.882Z,39.60
2023-04-26T07:37:03.486Z,39.50
2023-04-26T07:39:30.110Z,39.60
2023-04-26T07:41:56.677Z,39.80
2023-04-26T07:44:23.265Z,40.00
2023-04-26T07:46:49.909Z,39.90
2023-04-26T07:49:16.573Z,39.60
2023-04-26T07:51:45.011Z,39.30
2023-04-26T07:54:11.789Z,39.10
2023-04-26T07:56:38.465Z,38.80
2023-04-26T07:59:05.200Z,38.20
2023-04-26T08:01:31.871Z,37.80
2023-04-26T08:03:58.644Z,37.50
2023-04-26T08:06:26.044Z,37.20
2023-04-26T08:08:53.726Z,36.90
2023-04-26T08:11:20.350Z,36.60
2023-04-26T08:13:47.123Z,36.60
2023-04-26T08:16:13.929Z,36.20
2023-04-26T08:18:40.641Z,36.40
2023-04-26T08:21:07.707Z,36.30
2023-04-26T08:23:38.206Z,35.80
2023-04-26T08:26:04.962Z,35.30
2023-04-26T08:28:31.669Z,35.50
2023-04-26T08:30:58.390Z,35.40
2023-04-26T08:33:26.089Z,35.00
2023-04-26T08:35:52.775Z,34.30
2023-04-26T08:38:19.491Z,34.40
2023-04-26T08:40:47.642Z,34.10
2023-04-26T08:43:16.099Z,34.20
2023-04-26T08:45:45.727Z,34.50
2023-04-26T08:48:17.934Z,34.20
2023-04-26T08:50:46.574Z,34.00
2023-04-26T08:53:21.461Z,33.80
2023-04-26T08:55:49.547Z,33.00
2023-04-26T08:58:17.842Z,33.20
2023-04-26T09:00:46.030Z,33.10
2023-04-26T09:03:13.027Z,33.00
2023-04-26T09:05:44.232Z,32.90
2023-04-26T09:08:16.308Z,33.30
2023-04-26T09:10:42.976Z,33.20
2023-04-26T09:13:10.372Z,33.00
2023-04-26T09:15:37.248Z,33.00
2023-04-26T09:18:21.285Z,32.80
2023-04-26T09:21:03.270Z,32.80
2023-04-26T09:23:30.694Z,32.80
2023-04-26T09:25:57.434Z,32.80
2023-04-26T09:28:24.610Z,32.60
2023-04-26T09:30:51.374Z,32.20
2023-04-26T09:33:19.691Z,32.10
2023-04-26T09:35:46.429Z,32.00
2023-04-26T09:38:14.875Z,31.80
2023-04-26T09:40:44.139Z,31.90
2023-04-26T09:43:13.658Z,32.20
2023-04-26T09:45:55.684Z,32.10
2023-04-26T09:48:28.751Z,32.30
2023-04-26T09:50:59.001Z,32.30
2023-04-26T09:53:45.388Z,33.00
2023-04-26T09:56:18.847Z,32.70
2023-04-26T09:58:52.388Z,32.60
2023-04-26T10:01:20.199Z,32.30
2023-04-26T10:03:47.882Z,32.40
2023-04-26T10:06:14.706Z,32.00
2023-04-26T10:08:42.073Z,31.80
2023-04-26T10:11:11.244Z,31.90
2023-04-26T10:13:38.722Z,32.00
2023-04-26T10:16:06.659Z,32.10
2023-04-26T10:18:33.955Z,32.20
2023-04-26T10:21:06.424Z,32.30
2023-04-26T10:23:33.655Z,32.20
2023-04-26T10:26:00.421Z,32.50
2023-04-26T10:28:45.433Z,32.30
2023-04-26T10:31:12.216Z,32.20
2023-04-26T10:33:38.869Z,32.20
2023-04-26T10:36:07.135Z,32.10
2023-04-26T10:38:35.419Z,32.00
2023-04-26T10:41:37.296Z,31.90
2023-04-26T10:44:42.599Z,31.80
2023-04-26T10:47:26.859Z,31.60
2023-04-26T10:50:02.012Z,31.50
2023-04-26T10:52:30.033Z,31.30
2023-04-26T10:54:58.535Z,30.90
2023-04-26T10:57:49.813Z,30.40
2023-04-26T11:00:24.379Z,30.30
2023-04-26T11:03:04.008Z,30.30
2023-04-26T11:06:00.183Z,30.30
2023-04-26T11:08:29.869Z,30.80
2023-04-26T11:11:11.124Z,30.90
2023-04-26T11:13:39.811Z,30.30
2023-04-26T11:16:11.930Z,30.60
2023-04-26T11:18:41.825Z,30.30
2023-04-26T11:21:09.281Z,30.30
2023-04-26T11:23:36.684Z,29.90
2023-04-26T11:26:05.442Z,30.00
2023-04-26T11:28:34.504Z,29.60
2023-04-26T11:31:04.152Z,30.00
2023-04-26T11:33:31.287Z,30.00
2023-04-26T11:35:58.739Z,30.00
2023-04-26T11:38:26.644Z,30.00
2023-04-26T11:40:58.131Z,30.10
2023-04-26T11:43:40.868Z,30.00
2023-04-26T11:46:09.099Z,29.70
2023-04-26T11:48:37.402Z,29.80
2023-04-26T11:51:05.591Z,29.70
2023-04-26T11:53:40.355Z,29.80
2023-04-26T11:56:20.946Z,29.60
2023-04-26T11:58:49.065Z,29.80
2023-04-26T12:01:26.517Z,29.70
2023-04-26T12:03:54.885Z,29.60
2023-04-26T12:06:30.408Z,29.60
2023-04-26T12:08:57.386Z,29.30
2023-04-26T12:11:23.995Z,29.30
2023-04-26T12:13:50.740Z,29.40
2023-04-26T12:18:51.937Z,29.50
2023-04-26T12:21:19.253Z,29.60
2023-04-26T12:23:47.989Z,29.60
2023-04-26T12:26:15.503Z,29.50
2023-04-26T12:28:42.473Z,29.40
2023-04-26T12:31:09.302Z,29.00
2023-04-26T12:33:36.487Z,29.10
2023-04-26T12:36:13.378Z,28.90
2023-04-26T12:38:40.466Z,28.80
2023-04-26T12:41:07.264Z,29.00
2023-04-26T12:43:34.019Z,29.20
2023-04-26T12:46:01.439Z,29.00
2023-04-26T12:48:28.893Z,28.70
2023-04-26T12:50:55.884Z,28.60
2023-04-26T12:53:22.542Z,28.70
2023-04-26T12:55:49.367Z,28.90
2023-04-26T12:58:17.164Z,29.30
2023-04-26T13:00:44.781Z,29.30
2023-04-26T13:03:14.404Z,29.10
2023-04-26T13:05:41.805Z,29.40
2023-04-26T13:08:08.525Z,29.30
2023-04-26T13:10:35.141Z,29.40
2023-04-26T13:13:01.823Z,29.20
2023-04-26T13:15:29.889Z,29.50
2023-04-26T13:17:56.665Z,29.30
2023-04-26T13:20:25.617Z,29.30
2023-04-26T13:22:52.897Z,29.50
2023-04-26T13:25:19.981Z,29.60
2023-04-26T13:27:46.900Z,29.80
2023-04-26T13:30:13.858Z,30.00
2023-04-26T13:32:40.657Z,29.90
2023-04-26T13:35:08.165Z,29.90
2023-04-26T13:37:34.831Z,30.00
2023-04-26T13:40:01.740Z,30.20
2023-04-26T13:42:28.452Z,30.20
2023-04-26T13:44:55.200Z,30.30
2023-04-26T13:47:21.925Z,30.50
2023-04-26T13:49:48.554Z,30.80
2023-04-26T13:52:15.202Z,30.70
2023-04-26T13:54:41.916Z,30.60
2023-04-26T13:57:08.730Z,30.90
2023-04-26T13:59:35.526Z,30.80
2023-04-26T14:02:02.238Z,30.60
2023-04-26T14:04:29.013Z,30.70
2023-04-26T14:06:55.800Z,30.70
2023-04-26T14:09:22.404Z,30.60
2023-04-26T14:11:57.059Z,30.50
2023-04-26T14:14:27.433Z,30.50
2023-04-26T14:16:54.083Z,30.40
2023-04-26T14:19:20.716Z,30.20
2023-04-26T14:21:47.413Z,30.20
2023-04-26T14:24:14.038Z,30.30
2023-04-26T14:26:41.706Z,30.10
2023-04-26T14:29:08.309Z,30.00
2023-04-26T14:31:34.933Z,30.10
2023-04-26T14:34:01.594Z,30.20
2023-04-26T14:36:28.341Z,30.20
2023-04-26T14:38:55.025Z,30.30
2023-04-26T14:41:21.664Z,30.30
2023-04-26T14:43:48.466Z,30.40
2023-04-26T14:46:15.999Z,30.20
2023-04-26T14:48:45.846Z,30.10
2023-04-26T14:51:12.627Z,30.00
2023-04-26T14:53:39.299Z,29.90
2023-04-26T14:56:07.677Z,29.80
2023-04-26T14:58:34.645Z,29.80
2023-04-26T15:01:02.414Z,29.80
2023-04-26T15:03:29.491Z,30.00
2023-04-26T15:05:56.412Z,30.00
2023-04-26T15:08:23.134Z,30.20
2023-04-26T15:10:49.953Z,30.30
2023-04-26T15:13:17.684Z,30.20
2023-04-26T15:15:44.512Z,30.40
2023-04-26T15:18:11.201Z,30.50
2023-04-26T15:20:41.437Z,30.50
2023-04-26T15:23:08.400Z,30.60
2023-04-26T15:25:36.543Z,30.50
2023-04-26T15:28:03.585Z,30.50
2023-04-26T15:30:30.617Z,30.50
2023-04-26T15:32:57.770Z,30.50
2023-04-26T15:35:24.981Z,30.50
2023-04-26T15:37:54.150Z,30.60
2023-04-26T15:40:21.812Z,30.70
2023-04-26T15:42:49.221Z,30.70
2023-04-26T15:45:15.907Z,30.60
2023-04-26T15:47:42.719Z,30.70
2023-04-26T15:50:10.006Z,30.70
2023-04-26T15:52:39.189Z,30.70
2023-04-26T15:55:09.876Z,30.90
2023-04-26T15:57:36.686Z,31.10
2023-04-26T16:00:05.831Z,31.00
2023-04-26T16:02:32.537Z,31.20
2023-04-26T16:04:59.457Z,31.30
2023-04-26T16:07:26.459Z,31.30
2023-04-26T16:09:53.104Z,31.30
2023-04-26T16:12:19.721Z,31.40
2023-04-26T16:14:46.410Z,31.40
2023-04-26T16:17:13.276Z,31.40
2023-04-26T16:19:40.137Z,31.50
2023-04-26T16:22:06.827Z,31.50
2023-04-26T16:24:33.524Z,31.60
2023-04-26T16:27:00.239Z,31.60
2023-04-26T16:29:27.123Z,31.50
2023-04-26T16:31:53.866Z,31.50
2023-04-26T16:34:20.689Z,31.50
2023-04-26T16:36:47.372Z,31.50
2023-04-26T16:39:16.194Z,31.50
2023-04-26T16:41:43.140Z,31.60
2023-04-26T16:44:09.756Z,31.60
2023-04-26T16:46:36.735Z,31.70
2023-04-26T16:49:09.303Z,31.80
2023-04-26T16:51:37.947Z,31.90
2023-04-26T16:54:04.713Z,32.00
2023-04-26T16:56:32.152Z,32.10
2023-04-26T16:58:59.434Z,32.30
2023-04-26T17:01:26.308Z,32.40
2023-04-26T17:03:53.238Z,32.80
2023-04-26T17:06:20.316Z,33.20
2023-04-26T17:08:47.456Z,33.80
2023-04-26T17:11:16.112Z,34.40
2023-04-26T17:13:43.067Z,34.80
2023-04-26T17:16:10.124Z,35.20
2023-04-26T17:18:37.198Z,35.60
2023-04-26T17:21:05.113Z,35.90
2023-04-26T17:23:33.371Z,36.00
2023-04-26T17:26:00.962Z,36.40
2023-04-26T17:28:27.681Z,36.70
2023-04-26T17:30:54.373Z,36.90
2023-04-26T17:33:21.167Z,37.00
2023-04-26T17:35:47.956Z,37.10
2023-04-26T17:38:14.665Z,37.30
2023-04-26T17:40:41.257Z,37.60
2023-04-26T17:43:07.937Z,38.00
2023-04-26T17:45:34.557Z,38.10
2023-04-26T17:48:01.418Z,38.10
2023-04-26T17:50:28.553Z,38.20
2023-04-26T17:52:55.152Z,38.20
2023-04-26T17:55:21.881Z,38.40
2023-04-26T17:57:48.518Z,38.70
2023-04-26T18:00:18.539Z,39.00
2023-04-26T18:02:45.441Z,39.30
2023-04-26T18:05:13.286Z,39.50
2023-04-26T18:07:39.986Z,39.70
2023-04-26T18:10:07.133Z,39.90
2023-04-26T18:12:33.894Z,40.30
2023-04-26T18:15:00.716Z,40.40
2023-04-26T18:17:27.560Z,40.50
2023-04-26T18:19:54.204Z,40.70
2023-04-26T18:22:20.898Z,40.90
2023-04-26T18:24:47.531Z,41.20
2023-04-26T18:27:14.194Z,41.60
2023-04-26T18:29:41.344Z,42.20
2023-04-26T18:32:08.186Z,42.70
2023-04-26T18:34:34.807Z,43.10
2023-04-26T18:37:01.455Z,43.40
2023-04-26T18:39:28.319Z,43.80
2023-04-26T18:41:54.905Z,44.00
2023-04-26T18:44:21.611Z,44.30
2023-04-26T18:46:48.321Z,44.40
2023-04-26T18:49:14.987Z,44.70
2023-04-26T18:51:41.626Z,44.80
2023-04-26T18:54:08.224Z,45.10
2023-04-26T18:56:34.900Z,45.40
2023-04-26T18:59:01.734Z,45.60
2023-04-26T19:01:28.443Z,45.90
2023-04-26T19:03:55.395Z,46.10
2023-04-26T19:06:22.429Z,46.30
2023-04-26T19:08:49.157Z,46.30
2023-04-26T19:11:15.818Z,46.40
2023-04-26T19:13:42.725Z,46.60
2023-04-26T19:16:09.875Z,46.90
2023-04-26T19:18:37.331Z,47.30
2023-04-26T19:21:05.183Z,47.50
2023-04-26T19:23:31.913Z,47.90
2023-04-26T19:26:16.638Z,48.10
2023-04-26T19:28:43.278Z,48.50
2023-04-26T19:31:09.922Z,48.50
2023-04-26T19:33:36.976Z,48.70
2023-04-26T19:36:03.843Z,48.80
2023-04-26T19:38:30.557Z,49.00
2023-04-26T19:40:57.123Z,49.00
2023-04-26T19:43:23.741Z,49.10
2023-04-26T19:45:50.382Z,49.30
2023-04-26T19:48:17.009Z,49.60
2023-04-26T19:50:45.122Z,49.90
2023-04-26T19:53:13.232Z,50.20
2023-04-26T19:55:41.141Z,50.40
2023-04-26T19:58:08.666Z,50.60
2023-04-26T20:00:41.999Z,50.80
2023-04-26T20:03:08.818Z,51.00
2023-04-26T20:05:35.637Z,50.20
2023-04-26T20:08:02.612Z,50.70
2023-04-26T20:10:33.756Z,51.00
2023-04-26T20:13:01.379Z,51.40
2023-04-26T20:15:28.175Z,51.40
2023-04-26T20:17:55.156Z,51.60
2023-04-26T20:20:22.063Z,51.90
2023-04-26T20:22:48.756Z,52.10
2023-04-26T20:25:15.683Z,52.30
2023-04-26T20:27:42.329Z,52.30
2023-04-26T20:30:09.474Z,52.50
2023-04-26T20:32:36.229Z,52.60
2023-04-26T20:35:03.211Z,52.80
2023-04-26T20:37:30.018Z,53.00
2023-04-26T20:39:57.576Z,53.10
2023-04-26T20:42:24.983Z,53.20
2023-04-26T20:44:51.575Z,53.30
2023-04-26T20:47:18.279Z,53.40
2023-04-26T20:49:44.969Z,53.50
2023-04-26T20:52:13.291Z,53.50
2023-04-26T20:54:39.925Z,53.60
2023-04-26T20:57:06.601Z,53.80
2023-04-26T20:59:33.306Z,53.90
2023-04-26T21:02:00.002Z,54.10
2023-04-26T21:04:26.935Z,54.30
2023-04-26T21:06:53.919Z,54.50
2023-04-26T21:09:21.491Z,54.70
2023-04-26T21:11:48.164Z,54.90
2023-04-26T21:14:14.714Z,55.00
2023-04-26T21:16:41.342Z,55.20
2023-04-26T21:19:08.553Z,55.30
2023-04-26T21:21:35.395Z,55.40
2023-04-26T21:24:03.225Z,55.60
2023-04-26T21:26:30.147Z,55.70
2023-04-26T21:28:56.803Z,55.90
2023-04-26T21:31:23.651Z,56.00
2023-04-26T21:33:50.827Z,56.20
2023-04-26T21:36:17.576Z,56.30
2023-04-26T21:38:44.436Z,56.30
2023-04-26T21:41:11.221Z,56.40
2023-04-26T21:43:37.898Z,56.40
2023-04-26T21:46:04.775Z,56.40
2023-04-26T21:48:31.410Z,56.60
2023-04-26T21:50:58.505Z,56.70
2023-04-26T21:53:25.164Z,56.90
2023-04-26T21:55:53.292Z,57.10
2023-04-26T21:58:20.932Z,57.20
2023-04-26T22:00:47.719Z,57.30
2023-04-26T22:03:15.040Z,57.40
2023-04-26T22:05:42.036Z,57.50
2023-04-26T22:08:08.734Z,57.60
2023-04-26T22:10:36.294Z,57.60
2023-04-26T22:13:03.093Z,57.60
2023-04-26T22:15:29.886Z,57.60
2023-04-26T22:17:56.534Z,57.50
2023-04-26T22:20:23.339Z,57.60
2023-04-26T22:22:49.971Z,57.60
2023-04-26T22:25:16.559Z,57.70
2023-04-26T22:27:43.182Z,57.80
2023-04-26T22:30:23.817Z,57.90
2023-04-26T22:32:54.098Z,58.00
2023-04-26T22:35:22.098Z,58.20
2023-04-26T22:37:49.010Z,58.40
2023-04-26T22:40:16.280Z,58.40
2023-04-26T22:42:43.727Z,58.50
2023-04-26T22:45:11.570Z,58.60
2023-04-26T22:47:39.807Z,58.60
2023-04-26T22:50:07.583Z,58.60
2023-04-26T22:52:35.014Z,58.60
2023-04-26T22:55:01.745Z,58.60
2023-04-26T22:57:29.666Z,58.60
2023-04-26T22:59:56.678Z,58.60
2023-04-26T23:02:23.920Z,58.70
2023-04-26T23:04:50.668Z,58.70
2023-04-26T23:07:17.394Z,58.80
2023-04-26T23:09:44.249Z,58.90
2023-04-26T23:12:11.333Z,59.10
2023-04-26T23:14:38.004Z,59.20
2023-04-26T23:17:05.638Z,59.30
2023-04-26T23:19:33.080Z,59.50
2023-04-26T23:22:00.110Z,59.60
2023-04-26T23:24:26.897Z,59.70
2023-04-26T23:26:54.188Z,59.70
2023-04-26T23:29:20.964Z,59.70
2023-04-26T23:31:47.757Z,59.70
2023-04-26T23:34:14.469Z,59.70
2023-04-26T23:36:41.203Z,59.70
2023-04-26T23:39:08.716Z,59.70
2023-04-26T23:41:35.789Z,59.90
2023-04-26T23:44:02.437Z,59.90
2023-04-26T23:46:29.197Z,60.00
2023-04-26T23:48:56.082Z,60.10
2023-04-26T23:51:22.835Z,60.10
2023-04-26T23:53:49.471Z,60.10
2023-04-26T23:56:16.456Z,60.10
2023-04-26T23:58:43.095Z,60.10
